Time;durP1;ratioP1;P1;durP2;ratioP2;P2;SDS_P1;SDS_P2;PMS_P1;PMS_P2;Temp;Humidity;BMP_temperature;BMP_pressure;BME280_temperature;BME280_humidity;BME280_pressure;Samples;Min_cycle;Max_cycle;Signal;HPM_P1;HPM_P2
2023/12/28 00:00:26;;;;;;;1.00;1.00;;;7.90;99.90;;;;;;5093526;28;20052;-74
2023/12/28 00:02:51;;;;;;;0.90;0.90;;;7.90;99.90;;;;;;5093829;28;20083;-73
2023/12/28 00:05:17;;;;;;;0.90;0.90;;;8.20;99.90;;;;;;5092588;28;20119;-74
2023/12/28 00:07:43;;;;;;;0.80;0.80;;;8.00;99.90;;;;;;5093268;28;20036;-73
2023/12/28 00:10:08;;;;;;;0.90;0.90;;;8.00;99.90;;;;;;5093125;28;20086;-73
2023/12/28 00:12:34;;;;;;;0.85;0.85;;;8.00;99.90;;;;;;5093796;28;20043;-73
2023/12/28 00:15:00;;;;;;;0.90;0.90;;;8.10;99.90;;;;;;5096714;28;20031;-73
2023/12/28 00:17:25;;;;;;;0.80;0.80;;;8.60;99.90;;;;;;5096935;28;20459;-73
2023/12/28 00:19:51;;;;;;;1.10;1.00;;;8.10;99.90;;;;;;5097032;28;20044;-73
2023/12/28 00:22:16;;;;;;;0.90;0.90;;;8.20;99.90;;;;;;5096895;28;20369;-74
2023/12/28 00:24:44;;;;;;;1.00;1.00;;;8.20;99.90;;;;;;5096903;28;20039;-74
2023/12/28 00:27:10;;;;;;;0.80;0.80;;;8.20;99.90;;;;;;5097484;28;20044;-73
2023/12/28 00:29:38;;;;;;;0.80;0.80;;;8.30;99.90;;;;;;5097358;28;20181;-73
2023/12/28 00:32:05;;;;;;;0.80;0.80;;;8.30;99.90;;;;;;5096699;28;20516;-73
2023/12/28 00:34:31;;;;;;;;;;;8.40;99.90;;;;;;5097518;28;20116;-73
2023/12/28 00:36:56;;;;;;;1.00;1.00;;;8.50;99.90;;;;;;5096611;28;19920;-73
2023/12/28 00:39:22;;;;;;;0.80;0.80;;;8.40;99.90;;;;;;5096707;28;20114;-73
2023/12/28 00:41:48;;;;;;;0.80;0.80;;;8.50;99.90;;;;;;5096666;28;20093;-73
2023/12/28 00:44:13;;;;;;;0.82;0.82;;;8.50;99.90;;;;;;5096659;28;20039;-74
2023/12/28 00:46:39;;;;;;;0.90;0.90;;;8.50;99.90;;;;;;5096813;28;20441;-73
2023/12/28 00:49:05;;;;;;;0.90;0.90;;;8.50;99.90;;;;;;5096593;28;20047;-74
2023/12/28 00:51:30;;;;;;;0.82;0.82;;;8.50;99.90;;;;;;5096347;28;20545;-74
2023/12/28 00:53:56;;;;;;;1.42;1.33;;;8.60;99.90;;;;;;5095372;28;20036;-74
2023/12/28 00:56:22;;;;;;;0.82;0.82;;;8.60;99.90;;;;;;5096116;28;20058;-74
2023/12/28 00:58:47;;;;;;;0.80;0.80;;;8.60;99.90;;;;;;5096483;28;20040;-74
2023/12/28 01:01:13;;;;;;;0.70;0.70;;;9.40;99.90;;;;;;5096387;28;20468;-74
2023/12/28 01:03:38;;;;;;;0.90;0.90;;;8.60;99.90;;;;;;5096374;28;20039;-74
2023/12/28 01:06:05;;;;;;;0.80;0.80;;;8.60;99.90;;;;;;5096251;28;20036;-74
2023/12/28 01:08:33;;;;;;;1.80;1.65;;;8.60;99.90;;;;;;5096151;28;20468;-74
2023/12/28 01:10:59;;;;;;;0.90;0.90;;;8.60;99.90;;;;;;5096189;28;20036;-74
2023/12/28 01:13:25;;;;;;;0.90;0.90;;;8.60;99.90;;;;;;5096018;28;20372;-74
2023/12/28 01:15:50;;;;;;;0.90;0.90;;;8.70;99.90;;;;;;5096076;28;20032;-74
2023/12/28 01:18:16;;;;;;;0.90;0.90;;;8.50;99.90;;;;;;5096030;28;20084;-74
2023/12/28 01:20:42;;;;;;;0.80;0.80;;;9.30;99.90;;;;;;5096200;28;20113;-74
2023/12/28 01:23:07;;;;;;;0.80;0.80;;;9.40;99.90;;;;;;5095964;28;20039;-74
2023/12/28 01:25:33;;;;;;;0.90;0.90;;;8.50;99.90;;;;;;5095557;28;20044;-74
2023/12/28 01:27:58;;;;;;;11.48;2.35;;;8.50;99.90;;;;;;5096165;28;20372;-74
2023/12/28 01:30:24;;;;;;;0.90;0.90;;;9.10;99.90;;;;;;5095847;28;20458;-74
2023/12/28 01:32:49;;;;;;;0.90;0.90;;;9.10;99.90;;;;;;5095811;28;20040;-74
2023/12/28 01:35:15;;;;;;;0.90;0.90;;;8.40;99.90;;;;;;5095667;28;20040;-74
2023/12/28 01:37:40;;;;;;;0.80;0.80;;;8.70;99.90;;;;;;5095729;28;20044;-74
2023/12/28 01:40:07;;;;;;;0.80;0.80;;;8.30;99.90;;;;;;5095568;28;20032;-74
2023/12/28 01:42:32;;;;;;;0.80;0.80;;;8.30;99.90;;;;;;5095573;28;20044;-74
2023/12/28 01:44:58;;;;;;;0.80;0.80;;;9.00;99.90;;;;;;5095497;28;20044;-74
2023/12/28 01:47:25;;;;;;;0.90;0.90;;;8.30;99.90;;;;;;5095495;28;20047;-74
2023/12/28 01:49:51;;;;;;;0.80;0.80;;;8.20;99.90;;;;;;5095640;28;20064;-74
2023/12/28 01:52:17;;;;;;;1.90;1.80;;;8.30;99.90;;;;;;5095298;28;20036;-74
2023/12/28 01:54:43;;;;;;;0.90;0.90;;;8.20;99.90;;;;;;5095583;28;20093;-74
2023/12/28 01:57:10;;;;;;;0.90;0.90;;;8.50;99.90;;;;;;5095277;28;20353;-74
2023/12/28 01:59:35;;;;;;;0.90;0.90;;;8.20;99.90;;;;;;5095179;28;20044;-74
2023/12/28 02:02:01;;;;;;;0.80;0.80;;;8.20;99.90;;;;;;5095193;28;20040;-74
2023/12/28 02:04:28;;;;;;;0.80;0.80;;;8.20;99.90;;;;;;5095146;28;20380;-74
2023/12/28 02:06:59;;;;;;;0.80;0.80;;;8.30;99.90;;;;;;5095092;28;20046;-74
2023/12/28 02:09:25;;;;;;;0.90;0.90;;;9.10;99.90;;;;;;5095009;28;20059;-74
2023/12/28 02:11:52;;;;;;;0.82;0.82;;;8.30;99.90;;;;;;5095313;28;20460;-74
2023/12/28 02:14:18;;;;;;;;;;;8.30;99.90;;;;;;5095368;28;20036;-74
2023/12/28 02:17:12;;;;;;;0.80;0.80;;;8.30;99.90;;;;;;5094860;28;19968;-74
2023/12/28 02:19:50;;;;;;;1.65;1.55;;;8.30;99.90;;;;;;5094853;28;20063;-74
2023/12/28 02:22:16;;;;;;;0.80;0.80;;;8.30;99.90;;;;;;5094860;28;20083;-74
2023/12/28 02:25:00;;;;;;;0.73;0.73;;;8.30;99.90;;;;;;5093466;28;20387;-74
2023/12/28 02:27:26;;;;;;;1.35;1.17;;;8.30;99.90;;;;;;5094751;28;20122;-74
2023/12/28 02:29:53;;;;;;;0.85;0.85;;;8.30;99.90;;;;;;5094673;28;20368;-74
2023/12/28 02:32:24;;;;;;;0.90;0.90;;;8.30;99.90;;;;;;5094438;28;20039;-74
2023/12/28 02:34:54;;;;;;;0.80;0.80;;;8.40;99.90;;;;;;5095363;28;20127;-74
2023/12/28 02:37:20;;;;;;;0.80;0.80;;;8.40;99.90;;;;;;5094167;28;20079;-74
2023/12/28 02:39:49;;;;;;;0.80;0.80;;;8.30;99.90;;;;;;5094714;28;20032;-74
2023/12/28 02:42:15;;;;;;;0.77;0.77;;;8.40;99.90;;;;;;5093427;28;20380;-74
2023/12/28 02:44:40;;;;;;;1.80;0.93;;;8.40;99.90;;;;;;5094408;28;20036;-74
2023/12/28 02:47:06;;;;;;;0.90;0.90;;;8.40;99.90;;;;;;5094235;28;20040;-74
2023/12/28 02:49:31;;;;;;;0.90;0.90;;;8.40;99.90;;;;;;5094635;28;20044;-74
2023/12/28 02:51:57;;;;;;;0.80;0.80;;;8.40;99.90;;;;;;5094245;28;20436;-74
2023/12/28 02:54:22;;;;;;;0.90;0.90;;;8.40;99.90;;;;;;5094308;28;20028;-74
2023/12/28 02:56:48;;;;;;;0.80;0.80;;;8.60;99.90;;;;;;5094570;28;20044;-74
2023/12/28 02:59:14;;;;;;;0.80;0.80;;;8.40;99.90;;;;;;5094240;28;20048;-74
2023/12/28 03:01:39;;;;;;;0.88;0.88;;;8.50;99.90;;;;;;5094023;28;20063;-74
2023/12/28 03:04:09;;;;;;;0.80;0.80;;;8.90;99.90;;;;;;5094084;28;20036;-74
2023/12/28 03:06:35;;;;;;;0.80;0.80;;;8.40;99.90;;;;;;5094030;28;20040;-74
2023/12/28 03:09:01;;;;;;;0.80;0.80;;;8.50;99.90;;;;;;5093779;28;20472;-74
2023/12/28 03:11:26;;;;;;;0.90;0.90;;;8.90;99.90;;;;;;5094193;28;20115;-74
2023/12/28 03:13:52;;;;;;;0.80;0.80;;;8.50;99.90;;;;;;5093955;28;20521;-74
2023/12/28 03:16:17;;;;;;;0.75;0.75;;;8.60;99.90;;;;;;5093880;28;20127;-74
2023/12/28 03:18:43;;;;;;;0.90;0.90;;;8.70;99.90;;;;;;5093709;28;20048;-74
2023/12/28 03:21:09;;;;;;;0.95;0.95;;;8.70;99.90;;;;;;5093854;28;20098;-74
2023/12/28 03:23:34;;;;;;;0.80;0.80;;;8.70;99.90;;;;;;5093921;28;20040;-74
2023/12/28 03:26:01;;;;;;;0.80;0.80;;;9.40;99.90;;;;;;5093586;28;20082;-75
2023/12/28 03:28:27;;;;;;;0.80;0.80;;;8.80;99.90;;;;;;5093807;28;20047;-74
2023/12/28 03:30:52;;;;;;;0.80;0.80;;;8.70;99.90;;;;;;5093768;28;20036;-74
2023/12/28 03:33:18;;;;;;;0.90;0.90;;;8.80;99.90;;;;;;5093685;28;20115;-74
2023/12/28 03:35:44;;;;;;;0.90;0.90;;;8.80;99.90;;;;;;5094134;28;20051;-74
2023/12/28 03:38:09;;;;;;;0.80;0.80;;;8.70;99.90;;;;;;5094019;28;20032;-74
2023/12/28 03:40:35;;;;;;;0.80;0.80;;;8.80;99.90;;;;;;5093700;28;20036;-74
2023/12/28 03:43:00;;;;;;;1.20;1.10;;;8.90;99.90;;;;;;5093881;28;20040;-74
2023/12/28 03:45:26;;;;;;;0.90;0.90;;;9.20;99.90;;;;;;5093572;28;20452;-74
2023/12/28 03:47:52;;;;;;;0.80;0.80;;;8.90;99.90;;;;;;5095154;28;20044;-74
2023/12/28 03:50:17;;;;;;;0.80;0.80;;;9.00;99.90;;;;;;5097380;28;20048;-74
2023/12/28 03:52:43;;;;;;;0.80;0.80;;;8.90;99.90;;;;;;5097593;28;20032;-74
2023/12/28 03:55:08;;;;;;;0.95;0.93;;;8.90;99.90;;;;;;5096749;28;20367;-74
2023/12/28 03:57:34;;;;;;;0.80;0.80;;;9.00;99.90;;;;;;5097661;28;20047;-74
2023/12/28 04:00:00;;;;;;;1.65;1.55;;;9.00;99.90;;;;;;5097252;28;20039;-74
2023/12/28 04:02:30;;;;;;;0.80;0.80;;;9.00;99.90;;;;;;5097582;28;20101;-74
2023/12/28 04:04:57;;;;;;;1.70;1.35;;;9.00;99.90;;;;;;5097837;28;20044;-74
2023/12/28 04:07:23;;;;;;;0.93;0.93;;;9.00;99.90;;;;;;5097409;28;20071;-74
2023/12/28 04:09:48;;;;;;;0.80;0.80;;;9.10;99.90;;;;;;5097349;28;20506;-74
2023/12/28 04:12:14;;;;;;;0.85;0.85;;;9.20;99.90;;;;;;5097245;28;20089;-74
2023/12/28 04:14:40;;;;;;;0.80;0.80;;;9.60;99.90;;;;;;5097235;28;20040;-74
2023/12/28 04:17:05;;;;;;;0.90;0.90;;;9.10;99.90;;;;;;5097244;28;20040;-74
2023/12/28 04:19:31;;;;;;;0.80;0.80;;;9.10;99.90;;;;;;5097073;28;20051;-74
2023/12/28 04:21:56;;;;;;;1.00;1.00;;;9.80;99.90;;;;;;5097164;28;20117;-74
2023/12/28 04:24:22;;;;;;;0.80;0.80;;;9.20;99.90;;;;;;5096912;28;20098;-74
2023/12/28 04:26:47;;;;;;;0.70;0.70;;;9.30;99.90;;;;;;5097191;28;20168;-74
2023/12/28 04:29:13;;;;;;;2.10;1.77;;;9.80;99.90;;;;;;5096995;28;20032;-74
2023/12/28 04:31:42;;;;;;;5.63;1.70;;;9.80;99.90;;;;;;5096844;28;20585;-74
2023/12/28 04:34:08;;;;;;;0.80;0.80;;;9.20;99.90;;;;;;5096916;28;20433;-74
2023/12/28 04:36:40;;;;;;;0.80;0.80;;;9.30;99.90;;;;;;5096834;28;20043;-74
2023/12/28 04:39:06;;;;;;;0.70;0.70;;;9.20;99.90;;;;;;5096810;28;20051;-74
2023/12/28 04:41:31;;;;;;;1.30;1.20;;;9.20;99.90;;;;;;5096787;28;20376;-74
2023/12/28 04:43:57;;;;;;;0.80;0.80;;;9.30;99.90;;;;;;5096632;28;20123;-74
2023/12/28 04:46:22;;;;;;;2.28;2.15;;;9.10;99.90;;;;;;5096724;28;20502;-74
2023/12/28 04:48:48;;;;;;;0.80;0.80;;;9.20;99.90;;;;;;5095401;28;20040;-74
2023/12/28 04:51:14;;;;;;;0.80;0.80;;;9.10;99.90;;;;;;5096715;28;20042;-74
2023/12/28 04:53:39;;;;;;;0.73;0.73;;;9.10;99.90;;;;;;5096500;28;20040;-74
2023/12/28 04:56:06;;;;;;;0.80;0.80;;;9.10;99.90;;;;;;5096455;28;20056;-74
2023/12/28 04:58:31;;;;;;;1.98;1.88;;;9.10;99.90;;;;;;5096166;28;20036;-74
2023/12/28 05:00:57;;;;;;;0.80;0.80;;;9.10;99.90;;;;;;5095904;28;20101;-74
2023/12/28 05:03:22;;;;;;;0.80;0.80;;;9.10;99.90;;;;;;5096339;28;20118;-74
2023/12/28 05:05:48;;;;;;;0.80;0.80;;;9.60;99.90;;;;;;5096016;28;20044;-74
2023/12/28 05:08:13;;;;;;;0.80;0.80;;;9.10;99.90;;;;;;5096486;28;20146;-75
2023/12/28 05:10:39;;;;;;;0.80;0.80;;;9.90;99.90;;;;;;5096232;28;20539;-75
2023/12/28 05:13:04;;;;;;;0.80;0.80;;;9.10;99.90;;;;;;5096224;28;20096;-75
2023/12/28 05:15:30;;;;;;;0.80;0.80;;;9.10;99.90;;;;;;5095877;28;20055;-75
2023/12/28 05:17:56;;;;;;;0.70;0.70;;;9.30;99.90;;;;;;5096105;28;20047;-75
2023/12/28 05:20:21;;;;;;;0.80;0.80;;;9.10;99.90;;;;;;5096419;28;20472;-74
2023/12/28 05:22:47;;;;;;;0.80;0.80;;;9.20;99.90;;;;;;5095994;28;20036;-75
2023/12/28 05:25:12;;;;;;;1.00;1.00;;;9.20;99.90;;;;;;5095940;28;20050;-74
2023/12/28 05:27:38;;;;;;;0.80;0.80;;;9.20;99.90;;;;;;5094687;28;20038;-74
2023/12/28 05:30:05;;;;;;;0.80;0.80;;;9.30;99.90;;;;;;5095733;28;20119;-74
2023/12/28 05:32:30;;;;;;;0.80;0.80;;;9.30;99.90;;;;;;5095395;28;20453;-74
2023/12/28 05:34:56;;;;;;;0.90;0.90;;;9.40;99.90;;;;;;5096069;28;20097;-74
2023/12/28 05:37:22;;;;;;;0.80;0.80;;;9.50;99.90;;;;;;5095543;28;20482;-74
2023/12/28 05:39:47;;;;;;;0.80;0.80;;;9.40;99.90;;;;;;5095770;28;20036;-74
2023/12/28 05:42:13;;;;;;;0.80;0.80;;;9.40;99.90;;;;;;5095733;28;20079;-74
2023/12/28 05:44:38;;;;;;;3.03;2.45;;;9.40;99.90;;;;;;5095592;28;20032;-74
2023/12/28 05:47:04;;;;;;;0.80;0.80;;;9.50;99.90;;;;;;5096148;28;20040;-75
2023/12/28 05:49:30;;;;;;;0.70;0.70;;;9.40;99.90;;;;;;5095620;28;20032;-74
2023/12/28 05:51:56;;;;;;;0.70;0.70;;;9.50;99.90;;;;;;5095296;28;20380;-75
2023/12/28 05:54:21;;;;;;;0.80;0.80;;;9.50;99.90;;;;;;5095374;28;20040;-75
2023/12/28 05:56:47;;;;;;;0.80;0.80;;;9.50;99.90;;;;;;5095357;28;20032;-75
2023/12/28 05:59:12;;;;;;;0.80;0.80;;;9.50;99.90;;;;;;5076984;28;20039;-75
2023/12/28 06:01:43;;;;;;;0.80;0.80;;;8.80;99.90;;;;;;5095200;28;20126;-75
2023/12/28 06:04:08;;;;;;;1.38;1.20;;;9.60;99.90;;;;;;5095519;28;20379;-75
2023/12/28 06:06:34;;;;;;;0.90;0.90;;;9.60;99.90;;;;;;5095109;28;20044;-74
2023/12/28 06:09:00;;;;;;;0.73;0.73;;;9.60;99.90;;;;;;5093840;28;20059;-75
2023/12/28 06:11:25;;;;;;;0.80;0.80;;;10.10;99.90;;;;;;5092829;28;20047;-75
2023/12/28 06:13:51;;;;;;;0.80;0.80;;;9.60;99.90;;;;;;5094834;28;20464;-75
2023/12/28 06:16:16;;;;;;;2.47;0.90;;;9.70;99.90;;;;;;5095008;28;20043;-74
2023/12/28 06:18:42;;;;;;;0.80;0.80;;;9.70;99.90;;;;;;5094728;28;20093;-74
2023/12/28 06:21:11;;;;;;;0.82;0.80;;;9.60;99.90;;;;;;5094710;28;20044;-75
2023/12/28 06:23:36;;;;;;;0.70;0.70;;;9.70;99.90;;;;;;5094827;28;20036;-75
2023/12/28 06:26:06;;;;;;;0.90;0.90;;;9.70;99.90;;;;;;5094774;28;20036;-75
2023/12/28 06:28:32;;;;;;;0.80;0.80;;;9.70;99.90;;;;;;5094606;28;20044;-74
2023/12/28 06:31:00;;;;;;;0.80;0.80;;;10.20;99.90;;;;;;5095113;28;20471;-75
2023/12/28 06:33:29;;;;;;;0.70;0.70;;;9.70;99.90;;;;;;5094502;28;20105;-74
2023/12/28 06:35:57;;;;;;;0.80;0.80;;;9.70;99.90;;;;;;5094830;28;20380;-75
2023/12/28 06:38:23;;;;;;;0.80;0.80;;;9.70;99.90;;;;;;5093322;28;20036;-74
2023/12/28 06:40:48;;;;;;;0.80;0.80;;;9.80;99.90;;;;;;5094621;28;20384;-75
2023/12/28 06:43:14;;;;;;;0.80;0.80;;;9.80;99.90;;;;;;5094375;28;20521;-75
2023/12/28 06:45:41;;;;;;;0.80;0.80;;;9.80;99.90;;;;;;5094198;28;20522;-75
2023/12/28 06:48:06;;;;;;;0.80;0.80;;;9.90;99.90;;;;;;5094385;28;20043;-74
2023/12/28 06:50:32;;;;;;;0.70;0.70;;;9.90;99.90;;;;;;5094563;28;20036;-75
2023/12/28 06:52:57;;;;;;;1.25;1.15;;;10.00;99.90;;;;;;5094401;28;20042;-75
2023/12/28 06:55:23;;;;;;;0.80;0.80;;;10.00;99.90;;;;;;5094335;28;20407;-75
2023/12/28 06:57:48;;;;;;;0.77;0.77;;;10.00;99.90;;;;;;5094092;28;20419;-75
2023/12/28 07:00:14;;;;;;;0.75;0.75;;;10.10;99.90;;;;;;5094199;28;20115;-75
2023/12/28 07:02:40;;;;;;;0.80;0.80;;;10.00;99.90;;;;;;5094206;28;20039;-75
2023/12/28 07:05:06;;;;;;;0.70;0.70;;;10.00;99.90;;;;;;5093584;28;20118;-74
2023/12/28 07:07:31;;;;;;;0.70;0.70;;;10.00;99.90;;;;;;5094084;28;20032;-74
2023/12/28 07:09:57;;;;;;;2.60;2.30;;;11.10;99.90;;;;;;5093577;28;20391;-74
2023/12/28 07:12:23;;;;;;;0.80;0.80;;;10.00;99.90;;;;;;5093667;28;20468;-74
2023/12/28 07:14:49;;;;;;;0.80;0.80;;;10.00;99.90;;;;;;5093963;28;20118;-78
2023/12/28 07:17:17;;;;;;;0.80;0.80;;;10.10;99.90;;;;;;5093935;28;20040;-74
2023/12/28 07:19:43;;;;;;;0.80;0.80;;;10.20;99.90;;;;;;5094389;28;20052;-74
2023/12/28 07:22:08;;;;;;;1.63;1.43;;;11.00;99.90;;;;;;5093494;28;20123;-74
2023/12/28 07:24:34;;;;;;;0.80;0.80;;;10.10;99.90;;;;;;5093942;28;20181;-75
2023/12/28 07:27:00;;;;;;;0.80;0.80;;;10.00;99.90;;;;;;5093818;28;20032;-75
2023/12/28 07:29:25;;;;;;;0.70;0.70;;;10.00;99.90;;;;;;5093855;28;20411;-74
2023/12/28 07:31:51;;;;;;;0.75;0.75;;;10.10;99.90;;;;;;5092553;28;20123;-75
2023/12/28 07:34:17;;;;;;;0.80;0.80;;;10.00;99.90;;;;;;5092929;28;20169;-74
2023/12/28 07:36:43;;;;;;;0.80;0.80;;;10.80;99.90;;;;;;5093777;28;20040;-75
2023/12/28 07:39:09;;;;;;;0.80;0.80;;;10.00;99.90;;;;;;5093813;28;20048;-74
2023/12/28 07:41:34;;;;;;;0.80;0.80;;;10.10;99.90;;;;;;5093664;28;20040;-74
2023/12/28 07:44:00;;;;;;;0.80;0.80;;;10.00;99.90;;;;;;5093705;28;20043;-74
2023/12/28 07:46:26;;;;;;;0.90;0.90;;;10.20;99.90;;;;;;5093682;28;20122;-73
2023/12/28 07:48:51;;;;;;;0.80;0.80;;;10.10;99.90;;;;;;5093961;28;20036;-75
2023/12/28 07:51:17;;;;;;;1.00;0.90;;;10.10;99.90;;;;;;5093744;28;20067;-74
2023/12/28 07:53:42;;;;;;;0.80;0.80;;;10.10;99.90;;;;;;5093551;28;20040;-74
2023/12/28 07:56:08;;;;;;;0.80;0.80;;;10.20;99.90;;;;;;5093631;28;20040;-75
2023/12/28 07:58:34;;;;;;;0.80;0.80;;;10.10;99.90;;;;;;5093573;28;20044;-73
2023/12/28 08:01:00;;;;;;;0.80;0.80;;;10.10;99.90;;;;;;5093989;28;20063;-76
2023/12/28 08:03:25;;;;;;;0.77;0.77;;;10.10;99.90;;;;;;5093575;28;20452;-74
2023/12/28 08:05:51;;;;;;;0.80;0.80;;;10.10;99.90;;;;;;5093557;28;20040;-74
2023/12/28 08:08:16;;;;;;;0.75;0.75;;;10.10;99.90;;;;;;5093473;28;20044;-74
2023/12/28 08:10:42;;;;;;;0.80;0.80;;;10.10;99.90;;;;;;5093485;28;20047;-74
2023/12/28 08:13:07;;;;;;;0.70;0.70;;;10.20;99.90;;;;;;5093341;28;20036;-74
2023/12/28 08:15:33;;;;;;;1.02;1.02;;;10.20;99.90;;;;;;5093887;28;20371;-73
2023/12/28 08:17:59;;;;;;;0.70;0.70;;;10.20;99.90;;;;;;5093443;28;20040;-73
2023/12/28 08:20:24;;;;;;;0.80;0.80;;;10.20;99.90;;;;;;5093545;28;20492;-72
2023/12/28 08:22:50;;;;;;;0.70;0.70;;;10.10;99.90;;;;;;5093370;28;20044;-73
2023/12/28 08:25:16;;;;;;;0.70;0.70;;;11.00;99.90;;;;;;5093289;28;20044;-73
2023/12/28 08:27:41;;;;;;;0.80;0.80;;;10.10;99.90;;;;;;5092109;28;20379;-73
2023/12/28 08:30:08;;;;;;;1.23;0.95;;;10.10;99.90;;;;;;5093787;28;20036;-73
2023/12/28 08:32:33;;;;;;;0.80;0.80;;;10.20;99.90;;;;;;5093035;28;20082;-73
2023/12/28 08:34:59;;;;;;;0.80;0.80;;;10.20;99.90;;;;;;5095303;28;20059;-72
2023/12/28 08:37:24;;;;;;;0.80;0.80;;;10.20;99.90;;;;;;5096837;28;20480;-75
2023/12/28 08:39:50;;;;;;;0.70;0.70;;;10.20;99.90;;;;;;5096476;28;20047;-76
2023/12/28 08:42:15;;;;;;;0.80;0.80;;;10.10;99.90;;;;;;5095587;28;20036;-74
2023/12/28 08:44:41;;;;;;;0.70;0.70;;;10.30;99.90;;;;;;5096566;28;20040;-75
2023/12/28 08:47:07;;;;;;;0.80;0.80;;;10.30;99.90;;;;;;5096747;28;20040;-73
2023/12/28 08:49:33;;;;;;;1.35;1.15;;;10.30;99.90;;;;;;5096657;28;20036;-73
2023/12/28 08:51:59;;;;;;;0.80;0.80;;;10.40;99.90;;;;;;5096766;28;20451;-74
2023/12/28 08:54:24;;;;;;;0.73;0.73;;;10.30;99.90;;;;;;5096703;28;20166;-74
2023/12/28 08:56:50;;;;;;;0.82;0.82;;;10.40;99.90;;;;;;5096194;28;20032;-74
2023/12/28 08:59:15;;;;;;;0.70;0.70;;;10.30;99.90;;;;;;5096424;28;20040;-76
2023/12/28 09:01:41;;;;;;;0.70;0.70;;;10.40;99.90;;;;;;5096496;28;20468;-73
2023/12/28 09:04:06;;;;;;;1.60;1.50;;;10.40;99.90;;;;;;5096340;28;20028;-73
2023/12/28 09:06:32;;;;;;;0.70;0.70;;;10.40;99.90;;;;;;5096591;28;20456;-74
2023/12/28 09:08:58;;;;;;;0.88;0.88;;;10.40;99.90;;;;;;5096247;28;20464;-82
2023/12/28 09:11:23;;;;;;;0.70;0.70;;;10.60;99.90;;;;;;5096325;28;20085;-79
2023/12/28 09:13:49;;;;;;;0.70;0.70;;;10.40;99.90;;;;;;5096044;28;20036;-79
2023/12/28 09:16:15;;;;;;;0.70;0.70;;;10.40;99.90;;;;;;5096177;28;20032;-75
2023/12/28 09:18:41;;;;;;;1.02;1.02;;;10.40;99.90;;;;;;5095770;28;20044;-75
2023/12/28 09:21:09;;;;;;;0.70;0.70;;;10.50;99.90;;;;;;5096074;28;20044;-77
2023/12/28 09:23:35;;;;;;;0.70;0.70;;;10.50;99.90;;;;;;5096093;28;20131;-81
2023/12/28 09:26:05;;;;;;;0.75;0.75;;;10.50;99.90;;;;;;5095915;28;20446;-73
2023/12/28 09:28:31;;;;;;;0.70;0.70;;;11.40;99.90;;;;;;5096046;28;20650;-73
2023/12/28 09:30:57;;;;;;;0.70;0.70;;;10.50;99.90;;;;;;5095779;28;20044;-73
2023/12/28 09:33:23;;;;;;;0.70;0.70;;;10.50;99.90;;;;;;5095784;28;20028;-73
2023/12/28 09:35:48;;;;;;;0.75;0.75;;;10.50;99.90;;;;;;5095771;28;20066;-72
2023/12/28 09:38:14;;;;;;;0.80;0.80;;;10.50;99.90;;;;;;5095725;28;20479;-73
2023/12/28 09:40:43;;;;;;;0.70;0.70;;;10.50;99.90;;;;;;5095097;28;20127;-73
2023/12/28 09:43:24;;;;;;;0.70;0.70;;;10.60;99.90;;;;;;5093910;28;20028;-73
2023/12/28 09:45:50;;;;;;;0.80;0.80;;;10.50;99.90;;;;;;5093654;28;20127;-73
2023/12/28 09:48:17;;;;;;;0.80;0.80;;;10.60;99.90;;;;;;5094046;28;20127;-73
2023/12/28 09:50:50;;;;;;;;;;;10.60;99.90;;;;;;5094188;28;20040;-73
2023/12/28 09:53:16;;;;;;;0.70;0.70;;;10.60;99.90;;;;;;5093605;28;19923;-73
2023/12/28 09:55:43;;;;;;;0.80;0.80;;;10.60;99.90;;;;;;5094070;28;20036;-73
2023/12/28 09:58:09;;;;;;;0.70;0.70;;;10.60;99.90;;;;;;5095304;28;20044;-75
2023/12/28 10:00:35;;;;;;;0.70;0.70;;;10.60;99.90;;;;;;5095308;28;20040;-72
2023/12/28 10:03:02;;;;;;;0.70;0.70;;;10.60;99.90;;;;;;5095470;28;20036;-72
2023/12/28 10:05:28;;;;;;;15.80;1.88;;;10.60;99.90;;;;;;5094911;28;20039;-72
2023/12/28 10:07:55;;;;;;;0.80;0.80;;;10.60;99.90;;;;;;5095145;28;20071;-72
2023/12/28 10:10:22;;;;;;;0.70;0.70;;;10.60;99.90;;;;;;5094499;28;20468;-72
2023/12/28 10:12:47;;;;;;;6.85;0.82;;;10.60;99.90;;;;;;5095015;28;20048;-72
2023/12/28 10:15:13;;;;;;;0.70;0.70;;;10.60;99.90;;;;;;5095008;28;20032;-72
2023/12/28 10:17:39;;;;;;;1.40;1.23;;;10.60;99.90;;;;;;5095185;28;20048;-72
2023/12/28 10:20:08;;;;;;;0.70;0.70;;;10.60;99.90;;;;;;5094737;28;20056;-72
2023/12/28 10:22:34;;;;;;;0.77;0.77;;;10.60;99.90;;;;;;5094735;28;20035;-72
2023/12/28 10:25:04;;;;;;;1.77;0.90;;;10.60;99.90;;;;;;5094814;28;20046;-72
2023/12/28 10:27:29;;;;;;;0.70;0.70;;;10.60;99.90;;;;;;5094903;28;20039;-72
2023/12/28 10:29:56;;;;;;;0.80;0.80;;;10.60;99.90;;;;;;5094809;28;20048;-72
2023/12/28 10:32:24;;;;;;;0.70;0.70;;;10.60;99.90;;;;;;5094873;28;20341;-72
2023/12/28 10:34:54;;;;;;;0.70;0.70;;;10.60;99.90;;;;;;5094644;28;20048;-72
2023/12/28 10:37:21;;;;;;;0.68;0.68;;;10.60;99.90;;;;;;5094306;28;20478;-72
2023/12/28 10:39:49;;;;;;;0.70;0.70;;;10.60;99.90;;;;;;5093722;28;20036;-72
2023/12/28 10:42:42;;;;;;;0.70;0.70;;;10.60;99.90;;;;;;5094813;28;20375;-72
2023/12/28 10:45:10;;;;;;;0.70;0.70;;;10.50;99.90;;;;;;5093998;28;20047;-72
2023/12/28 10:47:43;;;;;;;0.70;0.70;;;10.60;99.90;;;;;;5094361;28;20036;-72
2023/12/28 10:50:10;;;;;;;0.70;0.70;;;11.20;99.90;;;;;;5094332;28;20468;-72
2023/12/28 10:52:38;;;;;;;0.70;0.70;;;10.50;99.90;;;;;;5094204;28;20036;-72
2023/12/28 10:55:31;;;;;;;0.80;0.80;;;10.60;99.90;;;;;;5093026;28;20115;-72
2023/12/28 10:58:11;;;;;;;0.90;0.90;;;10.60;99.90;;;;;;5092505;28;20468;-72
2023/12/28 11:00:47;;;;;;;0.93;0.90;;;10.60;99.90;;;;;;5094753;28;20084;-72
2023/12/28 11:03:18;;;;;;;0.70;0.70;;;10.60;99.90;;;;;;5094588;28;20040;-72
2023/12/28 11:05:46;;;;;;;0.70;0.70;;;10.50;99.90;;;;;;5094161;28;20189;-72
2023/12/28 11:08:14;;;;;;;0.70;0.70;;;10.50;99.90;;;;;;5094132;28;20048;-72
2023/12/28 11:10:40;;;;;;;1.63;0.90;;;10.60;99.90;;;;;;5092848;28;20388;-72
2023/12/28 11:13:06;;;;;;;0.70;0.70;;;10.60;99.90;;;;;;5094006;28;20040;-72
2023/12/28 11:15:32;;;;;;;0.70;0.70;;;10.50;99.90;;;;;;5094461;28;20051;-72
2023/12/28 11:17:58;;;;;;;0.80;0.80;;;10.70;99.90;;;;;;5094323;28;20040;-72
2023/12/28 11:20:24;;;;;;;1.05;1.00;;;10.60;99.90;;;;;;5093907;28;20055;-72
2023/12/28 11:22:50;;;;;;;0.70;0.70;;;10.50;99.90;;;;;;5094134;28;20130;-72
2023/12/28 11:25:19;;;;;;;0.73;0.73;;;10.50;99.90;;;;;;5092680;28;20055;-72
2023/12/28 11:27:46;;;;;;;0.70;0.70;;;10.60;99.90;;;;;;5092714;28;20418;-72
2023/12/28 11:30:13;;;;;;;0.70;0.70;;;10.50;99.90;;;;;;5093801;28;20082;-72
2023/12/28 11:32:43;;;;;;;0.90;0.90;;;10.50;99.90;;;;;;5093736;28;20066;-72
2023/12/28 11:35:15;;;;;;;0.70;0.70;;;10.90;99.90;;;;;;5092860;28;20044;-72
2023/12/28 11:37:47;;;;;;;0.80;0.77;;;10.50;99.90;;;;;;5093741;28;20039;-72
2023/12/28 11:40:16;;;;;;;0.70;0.70;;;11.70;99.90;;;;;;5093652;28;20047;-72
2023/12/28 11:42:53;;;;;;;0.70;0.70;;;10.60;99.90;;;;;;5093729;28;20047;-78
2023/12/28 11:45:23;;;;;;;0.70;0.70;;;10.60;99.90;;;;;;5095084;28;20036;-77
2023/12/28 11:48:02;;;;;;;0.70;0.70;;;10.60;99.90;;;;;;5099528;28;20131;-76
2023/12/28 11:50:27;;;;;;;0.70;0.70;;;10.60;99.90;;;;;;5093455;28;20051;-77
2023/12/28 11:52:53;;;;;;;0.70;0.70;;;10.60;99.90;;;;;;5093597;28;20036;-76
2023/12/28 11:55:23;;;;;;;0.70;0.70;;;10.60;99.90;;;;;;5093565;28;20044;-74
2023/12/28 11:57:49;;;;;;;0.70;0.70;;;10.70;99.90;;;;;;5093492;28;20036;-75
2023/12/28 12:00:14;;;;;;;1.02;1.02;;;10.60;99.90;;;;;;5093986;28;20474;-82
2023/12/28 12:02:47;;;;;;;0.75;0.75;;;10.60;99.90;;;;;;5093642;28;20114;-76
2023/12/28 12:05:14;;;;;;;0.70;0.70;;;10.60;99.90;;;;;;5093543;28;20144;-71
2023/12/28 12:07:40;;;;;;;0.80;0.80;;;10.80;99.90;;;;;;5093496;28;20044;-70
2023/12/28 12:10:06;;;;;;;0.77;0.77;;;10.60;99.90;;;;;;5097139;28;20368;-73
2023/12/28 12:12:32;;;;;;;0.75;0.75;;;10.60;99.90;;;;;;5097442;28;20043;-76
2023/12/28 12:14:58;;;;;;;1.17;1.08;;;10.60;99.90;;;;;;5097545;28;20036;-73
2023/12/28 12:17:24;;;;;;;0.70;0.70;;;10.60;99.90;;;;;;5097294;28;20449;-71
2023/12/28 12:19:53;;;;;;;0.82;0.70;;;11.20;99.90;;;;;;5096740;28;20117;-73
2023/12/28 12:22:19;;;;;;;0.70;0.70;;;11.30;99.90;;;;;;5097115;28;20064;-79
2023/12/28 12:24:48;;;;;;;0.70;0.70;;;10.50;99.90;;;;;;5097093;28;20098;-75
2023/12/28 12:27:13;;;;;;;0.90;0.90;;;10.50;99.90;;;;;;5096753;28;20754;-75
2023/12/28 12:29:39;;;;;;;1.33;1.25;;;10.50;99.90;;;;;;5097054;28;20055;-74
2023/12/28 12:32:05;;;;;;;0.70;0.70;;;11.10;99.90;;;;;;5096895;28;20532;-74
2023/12/28 12:34:30;;;;;;;0.70;0.70;;;10.50;99.90;;;;;;5097603;28;20036;-80
2023/12/28 12:36:58;;;;;;;0.80;0.80;;;10.40;99.90;;;;;;5101801;28;20063;-75
2023/12/28 12:39:24;;;;;;;1.05;1.05;;;10.40;99.90;;;;;;5096862;28;20075;-74
2023/12/28 12:41:50;;;;;;;2.87;0.90;;;10.40;99.90;;;;;;5096857;28;20080;-76
2023/12/28 12:44:18;;;;;;;0.73;0.73;;;10.50;99.90;;;;;;5096970;28;20136;-74
2023/12/28 12:46:44;;;;;;;0.60;0.60;;;10.40;99.90;;;;;;5097775;28;20474;-71
2023/12/28 12:49:10;;;;;;;0.70;0.70;;;10.40;99.90;;;;;;5098431;28;20047;-73